LDZALDZD

Guest
Details From LDZA - Zagreb
To LDZD - ZADAR
Flight Number -
Tags generated
Created
Modified
Stats Distance 103 nm / 192 km
Max Altitude 6,300 ft / 1,920 m
Waypoints 3
Social Downloads 7
Likes 0
Share VATSIM

Download

Looking for another format? Having issues loading an existing format? Contact us
Advertisement - Login to hide

Notes

Basic altitude profile: - Ascent Rate: 2500ft/min - Ascent Speed: 250kts - Cruise Altitude: 35000ft - Cruise Speed: 420kts - Descent Rate: 1500ft/min - Descent Speed: 250kts Options: - Use NATs: yes - Use PACOTS: yes - Use low airways: yes - Use high airways: yes

Route

LDZA PALEZ LDZD

ID Type Via Altitude Latitude Longitude Leg Dist Tot Dist Heading (true) Name
O LDZA APT - 0 ft / 0 m 45.74189˚ 16.06720˚ - 0 nm - Zagreb
PALEZ FIX - 6,300 ft / 1,920 m 44.57500˚ 15.53306˚ 73 nm 73 nm 198° / 198° -
O LDZD APT - 0 ft / 0 m 44.09723˚ 15.34798˚ 29 nm 103 nm 196° / 195° ZADAR

Altitude Profile

Advertisement - Login to hide

LDZA

Details ICAO LDZA (ZAG)
Name Zagreb
Region Croatia
Timezone Europe/Zagreb (UTC+1.0)
Stats Elevation 353 ft / 108 m (AMSL)
Location 45.741890° 16.067200°
Runways 1
Magnetic Variation 3.958° E

METAR

LDZA 121400Z 30008KT 230V330 7000 RA FEW003 BKN017 OVC033 10/08 Q1010 BECMG 24010KT -RA

Decode

TAF

TAF LDZA 121125Z 1212/1312 33008KT 9999 SCT040 TX12/1212Z TN02/1306Z BECMG 1212/1214 25010KT PROB40 TEMPO 1212/1310 4000 RA BKN010 OVC030 BECMG 1217/1219 VRB02KT BECMG 1302/1305 03012KT PROB30 TEMPO 1303/1308 3000 RASN BKN008 OVC030 BECMG 1305/1307 03008KT BECMG 1308/1310 VRB02KT

Decode

Departure Runways

ID Width Length Bearing (true) Bearing (mag) Surface Threshold Offset Overrun Length
05 148 ft / 45 m 10,659 ft / 3,249 m 46.69° 42.73° Asphalt 0 ft / 0 m 195 ft / 59 m
23 148 ft / 45 m 10,659 ft / 3,249 m 226.71° 222.75° Asphalt 0 ft / 0 m 195 ft / 59 m

LDZD

Details ICAO LDZD (ZAD)
Name ZADAR
Region Croatia
Timezone Europe/Zagreb (UTC+1.0)
Stats Elevation 289 ft / 88 m (AMSL)
Location 44.097225° 15.347978°
Runways 2
Magnetic Variation 3.701° E

METAR

LDZD 121400Z 15016KT 9999 FEW050 15/11 Q1012 NOSIG

Decode

TAF

TAF TAF LDZD 121125Z 1212/1312 15015KT 9999 SCT070 TX16/1212Z TN08/1306Z TEMPO 1212/1214 15015G25KT BECMG 1216/1218 30009KT

Decode

Destination Runways

ID Width Length Bearing (true) Bearing (mag) Surface Threshold Offset Overrun Length
04 147 ft / 45 m 6,519 ft / 1,987 m 41.52° 37.82° Asphalt 0 ft / 0 m 0 ft / 0 m
14 147 ft / 45 m 8,159 ft / 2,487 m 135.79° 132.09° Asphalt 0 ft / 0 m 0 ft / 0 m
22 147 ft / 45 m 6,519 ft / 1,987 m 221.53° 217.83° Asphalt 0 ft / 0 m 0 ft / 0 m
32 147 ft / 45 m 8,159 ft / 2,487 m 315.81° 312.11° Asphalt 0 ft / 0 m 0 ft / 0 m

Approach Navaids

Runway Type Ident Frequency Range Bearing (true) Bearing (mag) Slope Elevation
14 Localiser IZD 110.10 MHz 25 nm / 46 km 135.69° 131.99° - 246 ft / 75 m (AMSL)
14 Glidescope IZD 110.10 MHz 25 nm / 46 km 135.69° 131.99° 3.00° 236 ft / 72 m (AMSL)

Popular Alternatives